sensor_id;sensor_type;location;lat;lon;timestamp;P1;durP1;ratioP1;P2;durP2;ratioP2
52686;SDS011;38584;49.426;8.396;2024-01-10T00:01:06;27.05;;;11.48;;
52686;SDS011;38584;49.426;8.396;2024-01-10T00:03:31;26.13;;;10.93;;
52686;SDS011;38584;49.426;8.396;2024-01-10T00:05:57;27.13;;;11.95;;
52686;SDS011;38584;49.426;8.396;2024-01-10T00:08:22;27.30;;;11.82;;
52686;SDS011;38584;49.426;8.396;2024-01-10T00:10:47;30.67;;;12.48;;
52686;SDS011;38584;49.426;8.396;2024-01-10T00:13:13;35.10;;;12.88;;
52686;SDS011;38584;49.426;8.396;2024-01-10T00:15:38;28.27;;;12.10;;
52686;SDS011;38584;49.426;8.396;2024-01-10T00:18:03;28.88;;;11.13;;
52686;SDS011;38584;49.426;8.396;2024-01-10T00:20:29;28.95;;;11.65;;
52686;SDS011;38584;49.426;8.396;2024-01-10T00:22:54;28.13;;;11.32;;
52686;SDS011;38584;49.426;8.396;2024-01-10T00:25:19;28.70;;;11.63;;
52686;SDS011;38584;49.426;8.396;2024-01-10T00:27:45;30.38;;;12.55;;
52686;SDS011;38584;49.426;8.396;2024-01-10T00:30:10;30.38;;;12.13;;
52686;SDS011;38584;49.426;8.396;2024-01-10T00:32:35;29.25;;;12.18;;
52686;SDS011;38584;49.426;8.396;2024-01-10T00:35:01;26.48;;;11.40;;
52686;SDS011;38584;49.426;8.396;2024-01-10T00:37:26;34.05;;;13.05;;
52686;SDS011;38584;49.426;8.396;2024-01-10T00:39:52;26.95;;;11.30;;
52686;SDS011;38584;49.426;8.396;2024-01-10T00:42:20;25.75;;;11.60;;
52686;SDS011;38584;49.426;8.396;2024-01-10T00:44:45;29.95;;;11.80;;
52686;SDS011;38584;49.426;8.396;2024-01-10T00:47:11;29.60;;;12.95;;
52686;SDS011;38584;49.426;8.396;2024-01-10T00:49:36;27.15;;;11.98;;
52686;SDS011;38584;49.426;8.396;2024-01-10T00:52:01;27.80;;;12.35;;
52686;SDS011;38584;49.426;8.396;2024-01-10T00:54:27;35.42;;;13.52;;
52686;SDS011;38584;49.426;8.396;2024-01-10T00:56:52;33.38;;;13.27;;
52686;SDS011;38584;49.426;8.396;2024-01-10T00:59:17;31.08;;;12.10;;
52686;SDS011;38584;49.426;8.396;2024-01-10T01:01:43;30.23;;;12.25;;
52686;SDS011;38584;49.426;8.396;2024-01-10T01:04:08;33.17;;;13.27;;
52686;SDS011;38584;49.426;8.396;2024-01-10T01:06:33;31.60;;;13.80;;
52686;SDS011;38584;49.426;8.396;2024-01-10T01:08:59;29.23;;;12.52;;
52686;SDS011;38584;49.426;8.396;2024-01-10T01:11:24;29.25;;;12.50;;
52686;SDS011;38584;49.426;8.396;2024-01-10T01:13:50;28.23;;;12.70;;
52686;SDS011;38584;49.426;8.396;2024-01-10T01:16:15;28.23;;;12.25;;
52686;SDS011;38584;49.426;8.396;2024-01-10T01:18:40;27.55;;;11.60;;
52686;SDS011;38584;49.426;8.396;2024-01-10T01:21:10;31.55;;;11.93;;
52686;SDS011;38584;49.426;8.396;2024-01-10T01:23:35;31.42;;;11.45;;
52686;SDS011;38584;49.426;8.396;2024-01-10T01:26:04;31.50;;;13.32;;
52686;SDS011;38584;49.426;8.396;2024-01-10T01:28:29;34.08;;;12.40;;
52686;SDS011;38584;49.426;8.396;2024-01-10T01:30:55;27.02;;;12.57;;
52686;SDS011;38584;49.426;8.396;2024-01-10T01:33:20;33.80;;;13.80;;
52686;SDS011;38584;49.426;8.396;2024-01-10T01:35:45;30.83;;;12.93;;
52686;SDS011;38584;49.426;8.396;2024-01-10T01:38:13;27.48;;;12.07;;
52686;SDS011;38584;49.426;8.396;2024-01-10T01:40:42;28.50;;;12.98;;
52686;SDS011;38584;49.426;8.396;2024-01-10T01:43:20;32.17;;;13.43;;
52686;SDS011;38584;49.426;8.396;2024-01-10T01:45:52;29.30;;;12.95;;
52686;SDS011;38584;49.426;8.396;2024-01-10T01:48:22;30.25;;;13.10;;
52686;SDS011;38584;49.426;8.396;2024-01-10T01:50:48;31.27;;;13.50;;
52686;SDS011;38584;49.426;8.396;2024-01-10T01:53:16;29.38;;;13.20;;
52686;SDS011;38584;49.426;8.396;2024-01-10T01:55:42;31.08;;;13.30;;
52686;SDS011;38584;49.426;8.396;2024-01-10T01:58:08;29.80;;;12.20;;
52686;SDS011;38584;49.426;8.396;2024-01-10T02:00:34;28.50;;;12.50;;
52686;SDS011;38584;49.426;8.396;2024-01-10T02:02:59;31.55;;;13.40;;
52686;SDS011;38584;49.426;8.396;2024-01-10T02:05:25;34.70;;;14.90;;
52686;SDS011;38584;49.426;8.396;2024-01-10T02:07:51;32.72;;;13.23;;
52686;SDS011;38584;49.426;8.396;2024-01-10T02:10:16;30.52;;;13.73;;
52686;SDS011;38584;49.426;8.396;2024-01-10T02:12:45;33.30;;;14.32;;
52686;SDS011;38584;49.426;8.396;2024-01-10T02:15:11;34.75;;;15.15;;
52686;SDS011;38584;49.426;8.396;2024-01-10T02:17:37;36.85;;;14.30;;
52686;SDS011;38584;49.426;8.396;2024-01-10T02:20:12;34.25;;;14.70;;
52686;SDS011;38584;49.426;8.396;2024-01-10T02:22:38;35.90;;;14.60;;
52686;SDS011;38584;49.426;8.396;2024-01-10T02:25:07;35.75;;;14.93;;
52686;SDS011;38584;49.426;8.396;2024-01-10T02:27:36;35.42;;;15.27;;
52686;SDS011;38584;49.426;8.396;2024-01-10T02:30:05;35.00;;;15.55;;
52686;SDS011;38584;49.426;8.396;2024-01-10T02:32:31;34.45;;;15.13;;
52686;SDS011;38584;49.426;8.396;2024-01-10T02:34:57;34.22;;;15.48;;
52686;SDS011;38584;49.426;8.396;2024-01-10T02:37:22;39.97;;;16.05;;
52686;SDS011;38584;49.426;8.396;2024-01-10T02:39:48;35.58;;;15.23;;
52686;SDS011;38584;49.426;8.396;2024-01-10T02:42:13;36.38;;;15.20;;
52686;SDS011;38584;49.426;8.396;2024-01-10T02:44:39;36.80;;;16.25;;
52686;SDS011;38584;49.426;8.396;2024-01-10T02:47:04;35.83;;;15.30;;
52686;SDS011;38584;49.426;8.396;2024-01-10T02:49:31;35.30;;;14.68;;
52686;SDS011;38584;49.426;8.396;2024-01-10T02:51:56;36.60;;;15.50;;
52686;SDS011;38584;49.426;8.396;2024-01-10T02:54:27;33.88;;;14.20;;
52686;SDS011;38584;49.426;8.396;2024-01-10T02:56:59;35.92;;;14.00;;
52686;SDS011;38584;49.426;8.396;2024-01-10T02:59:24;33.83;;;14.73;;
52686;SDS011;38584;49.426;8.396;2024-01-10T03:01:53;33.70;;;13.75;;
52686;SDS011;38584;49.426;8.396;2024-01-10T03:04:18;33.22;;;13.48;;
52686;SDS011;38584;49.426;8.396;2024-01-10T03:06:52;36.67;;;15.25;;
52686;SDS011;38584;49.426;8.396;2024-01-10T03:09:18;33.40;;;14.55;;
52686;SDS011;38584;49.426;8.396;2024-01-10T03:11:43;32.78;;;14.43;;
52686;SDS011;38584;49.426;8.396;2024-01-10T03:14:09;34.08;;;14.57;;
52686;SDS011;38584;49.426;8.396;2024-01-10T03:16:35;29.42;;;13.52;;
52686;SDS011;38584;49.426;8.396;2024-01-10T03:19:01;33.90;;;13.85;;
52686;SDS011;38584;49.426;8.396;2024-01-10T03:21:26;34.20;;;14.43;;
52686;SDS011;38584;49.426;8.396;2024-01-10T03:23:52;33.72;;;14.70;;
52686;SDS011;38584;49.426;8.396;2024-01-10T03:26:18;34.58;;;14.77;;
52686;SDS011;38584;49.426;8.396;2024-01-10T03:28:47;31.67;;;14.50;;
52686;SDS011;38584;49.426;8.396;2024-01-10T03:31:12;40.38;;;14.05;;
52686;SDS011;38584;49.426;8.396;2024-01-10T03:33:38;33.40;;;14.23;;
52686;SDS011;38584;49.426;8.396;2024-01-10T03:36:03;31.58;;;13.63;;
52686;SDS011;38584;49.426;8.396;2024-01-10T03:38:29;35.17;;;14.30;;
52686;SDS011;38584;49.426;8.396;2024-01-10T03:40:55;32.30;;;13.73;;
52686;SDS011;38584;49.426;8.396;2024-01-10T03:43:20;33.92;;;13.70;;
52686;SDS011;38584;49.426;8.396;2024-01-10T03:45:48;34.30;;;14.30;;
52686;SDS011;38584;49.426;8.396;2024-01-10T03:48:17;36.45;;;14.90;;
52686;SDS011;38584;49.426;8.396;2024-01-10T03:50:45;31.95;;;15.23;;
52686;SDS011;38584;49.426;8.396;2024-01-10T03:53:10;37.75;;;15.00;;
52686;SDS011;38584;49.426;8.396;2024-01-10T03:55:36;35.50;;;15.75;;
52686;SDS011;38584;49.426;8.396;2024-01-10T03:58:01;38.95;;;15.40;;
52686;SDS011;38584;49.426;8.396;2024-01-10T04:00:26;33.63;;;15.60;;
52686;SDS011;38584;49.426;8.396;2024-01-10T04:02:52;35.38;;;14.18;;
52686;SDS011;38584;49.426;8.396;2024-01-10T04:05:18;30.20;;;13.65;;
52686;SDS011;38584;49.426;8.396;2024-01-10T04:07:44;32.05;;;15.23;;
52686;SDS011;38584;49.426;8.396;2024-01-10T04:10:10;33.10;;;14.05;;
52686;SDS011;38584;49.426;8.396;2024-01-10T04:12:36;35.88;;;15.93;;
52686;SDS011;38584;49.426;8.396;2024-01-10T04:15:02;41.95;;;18.10;;
52686;SDS011;38584;49.426;8.396;2024-01-10T04:17:28;40.17;;;16.90;;
52686;SDS011;38584;49.426;8.396;2024-01-10T04:19:53;44.00;;;18.77;;
52686;SDS011;38584;49.426;8.396;2024-01-10T04:22:18;35.22;;;15.70;;
52686;SDS011;38584;49.426;8.396;2024-01-10T04:24:47;43.85;;;18.00;;
52686;SDS011;38584;49.426;8.396;2024-01-10T04:27:21;38.58;;;17.77;;
52686;SDS011;38584;49.426;8.396;2024-01-10T04:29:47;41.78;;;16.85;;
52686;SDS011;38584;49.426;8.396;2024-01-10T04:32:12;35.45;;;16.15;;
52686;SDS011;38584;49.426;8.396;2024-01-10T04:34:38;42.20;;;16.85;;
52686;SDS011;38584;49.426;8.396;2024-01-10T04:37:05;37.78;;;16.20;;
52686;SDS011;38584;49.426;8.396;2024-01-10T04:39:31;36.28;;;15.35;;
52686;SDS011;38584;49.426;8.396;2024-01-10T04:41:57;37.05;;;16.27;;
52686;SDS011;38584;49.426;8.396;2024-01-10T04:44:22;37.33;;;15.20;;
52686;SDS011;38584;49.426;8.396;2024-01-10T04:46:48;34.97;;;15.77;;
52686;SDS011;38584;49.426;8.396;2024-01-10T04:49:13;41.88;;;18.90;;
52686;SDS011;38584;49.426;8.396;2024-01-10T04:51:38;44.50;;;19.15;;
52686;SDS011;38584;49.426;8.396;2024-01-10T04:54:07;42.33;;;17.65;;
52686;SDS011;38584;49.426;8.396;2024-01-10T04:56:32;45.85;;;19.17;;
52686;SDS011;38584;49.426;8.396;2024-01-10T04:58:57;44.25;;;18.15;;
52686;SDS011;38584;49.426;8.396;2024-01-10T05:01:23;35.35;;;17.00;;
52686;SDS011;38584;49.426;8.396;2024-01-10T05:03:48;40.03;;;17.40;;
52686;SDS011;38584;49.426;8.396;2024-01-10T05:06:14;41.08;;;17.13;;
52686;SDS011;38584;49.426;8.396;2024-01-10T05:08:42;40.78;;;18.05;;
52686;SDS011;38584;49.426;8.396;2024-01-10T05:11:07;35.95;;;16.77;;
52686;SDS011;38584;49.426;8.396;2024-01-10T05:13:33;39.97;;;18.23;;
52686;SDS011;38584;49.426;8.396;2024-01-10T05:15:58;41.80;;;19.23;;
52686;SDS011;38584;49.426;8.396;2024-01-10T05:18:24;45.22;;;19.10;;
52686;SDS011;38584;49.426;8.396;2024-01-10T05:20:52;45.63;;;20.05;;
52686;SDS011;38584;49.426;8.396;2024-01-10T05:23:21;43.55;;;18.73;;
52686;SDS011;38584;49.426;8.396;2024-01-10T05:25:46;43.95;;;19.20;;
52686;SDS011;38584;49.426;8.396;2024-01-10T05:28:11;44.70;;;18.50;;
52686;SDS011;38584;49.426;8.396;2024-01-10T05:30:37;43.58;;;17.88;;
52686;SDS011;38584;49.426;8.396;2024-01-10T05:33:02;35.78;;;16.92;;
52686;SDS011;38584;49.426;8.396;2024-01-10T05:35:27;40.22;;;17.10;;
52686;SDS011;38584;49.426;8.396;2024-01-10T05:37:53;41.00;;;17.70;;
52686;SDS011;38584;49.426;8.396;2024-01-10T05:40:19;45.60;;;18.83;;
52686;SDS011;38584;49.426;8.396;2024-01-10T05:42:45;42.08;;;18.23;;
52686;SDS011;38584;49.426;8.396;2024-01-10T05:45:10;42.67;;;19.15;;
52686;SDS011;38584;49.426;8.396;2024-01-10T05:47:35;45.45;;;18.67;;
52686;SDS011;38584;49.426;8.396;2024-01-10T05:50:02;40.55;;;18.85;;
52686;SDS011;38584;49.426;8.396;2024-01-10T05:52:27;40.42;;;17.42;;
52686;SDS011;38584;49.426;8.396;2024-01-10T05:54:52;44.35;;;18.70;;
52686;SDS011;38584;49.426;8.396;2024-01-10T05:57:21;45.97;;;18.02;;
52686;SDS011;38584;49.426;8.396;2024-01-10T05:59:47;37.72;;;17.13;;
52686;SDS011;38584;49.426;8.396;2024-01-10T06:02:12;40.78;;;17.77;;
52686;SDS011;38584;49.426;8.396;2024-01-10T06:04:41;45.45;;;20.10;;
52686;SDS011;38584;49.426;8.396;2024-01-10T06:07:06;48.83;;;21.35;;
52686;SDS011;38584;49.426;8.396;2024-01-10T06:09:31;51.92;;;20.98;;
52686;SDS011;38584;49.426;8.396;2024-01-10T06:11:56;48.00;;;20.85;;
52686;SDS011;38584;49.426;8.396;2024-01-10T06:14:22;45.50;;;19.50;;
52686;SDS011;38584;49.426;8.396;2024-01-10T06:16:47;45.95;;;20.98;;
52686;SDS011;38584;49.426;8.396;2024-01-10T06:19:13;45.53;;;20.27;;
52686;SDS011;38584;49.426;8.396;2024-01-10T06:21:38;42.70;;;19.13;;
52686;SDS011;38584;49.426;8.396;2024-01-10T06:24:04;43.45;;;19.95;;
52686;SDS011;38584;49.426;8.396;2024-01-10T06:26:29;47.03;;;20.83;;
52686;SDS011;38584;49.426;8.396;2024-01-10T06:28:55;44.67;;;20.77;;
52686;SDS011;38584;49.426;8.396;2024-01-10T06:31:23;48.17;;;22.27;;
52686;SDS011;38584;49.426;8.396;2024-01-10T06:33:48;47.97;;;21.52;;
52686;SDS011;38584;49.426;8.396;2024-01-10T06:36:14;45.92;;;21.95;;
52686;SDS011;38584;49.426;8.396;2024-01-10T06:38:39;49.55;;;22.10;;
52686;SDS011;38584;49.426;8.396;2024-01-10T06:41:11;49.55;;;22.33;;
52686;SDS011;38584;49.426;8.396;2024-01-10T06:43:41;47.15;;;21.73;;
52686;SDS011;38584;49.426;8.396;2024-01-10T06:46:07;45.35;;;22.10;;
52686;SDS011;38584;49.426;8.396;2024-01-10T06:48:35;48.70;;;22.35;;
52686;SDS011;38584;49.426;8.396;2024-01-10T06:51:01;50.67;;;22.80;;
52686;SDS011;38584;49.426;8.396;2024-01-10T06:53:29;50.00;;;22.38;;
52686;SDS011;38584;49.426;8.396;2024-01-10T06:55:54;49.35;;;22.05;;
52686;SDS011;38584;49.426;8.396;2024-01-10T06:58:20;55.17;;;22.38;;
52686;SDS011;38584;49.426;8.396;2024-01-10T07:00:45;49.65;;;21.33;;
52686;SDS011;38584;49.426;8.396;2024-01-10T07:03:10;47.97;;;21.05;;
52686;SDS011;38584;49.426;8.396;2024-01-10T07:05:48;50.53;;;21.30;;
52686;SDS011;38584;49.426;8.396;2024-01-10T07:08:14;47.70;;;19.67;;
52686;SDS011;38584;49.426;8.396;2024-01-10T07:10:39;53.00;;;20.90;;
52686;SDS011;38584;49.426;8.396;2024-01-10T07:13:11;52.92;;;21.55;;
52686;SDS011;38584;49.426;8.396;2024-01-10T07:15:36;46.45;;;21.00;;
52686;SDS011;38584;49.426;8.396;2024-01-10T07:18:06;45.58;;;21.30;;
52686;SDS011;38584;49.426;8.396;2024-01-10T07:20:31;43.72;;;20.20;;
52686;SDS011;38584;49.426;8.396;2024-01-10T07:22:57;52.35;;;21.15;;
52686;SDS011;38584;49.426;8.396;2024-01-10T07:25:27;56.22;;;22.27;;
52686;SDS011;38584;49.426;8.396;2024-01-10T07:27:55;49.25;;;20.65;;
52686;SDS011;38584;49.426;8.396;2024-01-10T07:30:21;51.45;;;20.98;;
52686;SDS011;38584;49.426;8.396;2024-01-10T07:32:49;56.75;;;22.83;;
52686;SDS011;38584;49.426;8.396;2024-01-10T07:35:14;48.83;;;21.83;;
52686;SDS011;38584;49.426;8.396;2024-01-10T07:37:40;52.63;;;22.10;;
52686;SDS011;38584;49.426;8.396;2024-01-10T07:40:09;46.05;;;20.33;;
52686;SDS011;38584;49.426;8.396;2024-01-10T07:42:38;42.35;;;19.90;;
52686;SDS011;38584;49.426;8.396;2024-01-10T07:45:04;50.67;;;21.42;;
52686;SDS011;38584;49.426;8.396;2024-01-10T07:47:37;52.70;;;21.27;;
52686;SDS011;38584;49.426;8.396;2024-01-10T07:50:15;53.53;;;21.95;;
52686;SDS011;38584;49.426;8.396;2024-01-10T07:52:41;54.30;;;21.80;;
52686;SDS011;38584;49.426;8.396;2024-01-10T07:55:07;51.17;;;20.70;;
52686;SDS011;38584;49.426;8.396;2024-01-10T07:57:39;53.67;;;20.85;;
52686;SDS011;38584;49.426;8.396;2024-01-10T08:00:10;62.60;;;21.33;;
52686;SDS011;38584;49.426;8.396;2024-01-10T08:02:36;49.60;;;20.83;;
52686;SDS011;38584;49.426;8.396;2024-01-10T08:05:04;57.03;;;22.40;;
52686;SDS011;38584;49.426;8.396;2024-01-10T08:07:36;57.33;;;20.80;;
52686;SDS011;38584;49.426;8.396;2024-01-10T08:10:05;68.15;;;22.35;;
52686;SDS011;38584;49.426;8.396;2024-01-10T08:12:34;61.58;;;22.60;;
52686;SDS011;38584;49.426;8.396;2024-01-10T08:14:59;71.07;;;23.05;;
52686;SDS011;38584;49.426;8.396;2024-01-10T08:17:28;51.75;;;22.17;;
52686;SDS011;38584;49.426;8.396;2024-01-10T08:19:53;52.40;;;22.20;;
52686;SDS011;38584;49.426;8.396;2024-01-10T08:22:21;56.17;;;21.55;;
52686;SDS011;38584;49.426;8.396;2024-01-10T08:24:48;50.58;;;21.55;;
52686;SDS011;38584;49.426;8.396;2024-01-10T08:27:14;51.10;;;22.30;;
52686;SDS011;38584;49.426;8.396;2024-01-10T08:29:45;45.22;;;20.55;;
52686;SDS011;38584;49.426;8.396;2024-01-10T08:32:19;48.20;;;20.85;;
52686;SDS011;38584;49.426;8.396;2024-01-10T08:34:48;60.05;;;21.90;;
52686;SDS011;38584;49.426;8.396;2024-01-10T08:37:13;45.50;;;21.10;;
52686;SDS011;38584;49.426;8.396;2024-01-10T08:39:39;51.80;;;22.48;;
52686;SDS011;38584;49.426;8.396;2024-01-10T08:42:13;51.50;;;18.98;;
52686;SDS011;38584;49.426;8.396;2024-01-10T08:44:45;46.58;;;19.33;;
52686;SDS011;38584;49.426;8.396;2024-01-10T08:47:13;39.97;;;19.73;;
52686;SDS011;38584;49.426;8.396;2024-01-10T08:49:38;45.15;;;20.13;;
52686;SDS011;38584;49.426;8.396;2024-01-10T08:52:07;38.22;;;18.67;;
52686;SDS011;38584;49.426;8.396;2024-01-10T08:54:39;50.80;;;19.42;;
52686;SDS011;38584;49.426;8.396;2024-01-10T08:57:04;44.38;;;19.38;;
52686;SDS011;38584;49.426;8.396;2024-01-10T08:59:29;44.00;;;19.83;;
52686;SDS011;38584;49.426;8.396;2024-01-10T09:01:55;43.60;;;19.05;;
52686;SDS011;38584;49.426;8.396;2024-01-10T09:04:23;41.45;;;19.00;;
52686;SDS011;38584;49.426;8.396;2024-01-10T09:06:50;43.28;;;19.30;;
52686;SDS011;38584;49.426;8.396;2024-01-10T09:09:16;45.17;;;19.05;;
52686;SDS011;38584;49.426;8.396;2024-01-10T09:11:45;55.53;;;18.27;;
52686;SDS011;38584;49.426;8.396;2024-01-10T09:14:11;44.42;;;20.02;;
52686;SDS011;38584;49.426;8.396;2024-01-10T09:16:40;40.90;;;19.52;;
52686;SDS011;38584;49.426;8.396;2024-01-10T09:19:05;43.95;;;19.00;;
52686;SDS011;38584;49.426;8.396;2024-01-10T09:21:33;45.75;;;19.80;;
52686;SDS011;38584;49.426;8.396;2024-01-10T09:24:02;39.15;;;19.10;;
52686;SDS011;38584;49.426;8.396;2024-01-10T09:26:39;41.58;;;19.25;;
52686;SDS011;38584;49.426;8.396;2024-01-10T09:29:05;39.78;;;18.33;;
52686;SDS011;38584;49.426;8.396;2024-01-10T09:31:37;37.38;;;16.98;;
52686;SDS011;38584;49.426;8.396;2024-01-10T09:34:05;40.05;;;18.67;;
52686;SDS011;38584;49.426;8.396;2024-01-10T09:36:34;42.97;;;19.38;;
52686;SDS011;38584;49.426;8.396;2024-01-10T09:38:59;39.42;;;18.63;;
52686;SDS011;38584;49.426;8.396;2024-01-10T09:41:30;39.72;;;18.65;;
52686;SDS011;38584;49.426;8.396;2024-01-10T09:43:57;40.45;;;17.23;;
52686;SDS011;38584;49.426;8.396;2024-01-10T09:46:23;38.53;;;16.70;;
52686;SDS011;38584;49.426;8.396;2024-01-10T09:48:51;40.97;;;18.15;;
52686;SDS011;38584;49.426;8.396;2024-01-10T09:51:16;44.30;;;16.70;;
52686;SDS011;38584;49.426;8.396;2024-01-10T09:53:43;38.88;;;17.77;;
52686;SDS011;38584;49.426;8.396;2024-01-10T09:56:16;37.08;;;18.20;;
52686;SDS011;38584;49.426;8.396;2024-01-10T09:58:43;36.80;;;17.45;;
52686;SDS011;38584;49.426;8.396;2024-01-10T10:01:16;44.17;;;17.35;;
52686;SDS011;38584;49.426;8.396;2024-01-10T10:03:54;33.22;;;16.42;;
52686;SDS011;38584;49.426;8.396;2024-01-10T10:06:20;34.80;;;15.85;;
52686;SDS011;38584;49.426;8.396;2024-01-10T10:08:46;36.85;;;16.73;;
52686;SDS011;38584;49.426;8.396;2024-01-10T10:11:14;37.10;;;17.02;;
52686;SDS011;38584;49.426;8.396;2024-01-10T10:13:40;37.03;;;15.75;;
52686;SDS011;38584;49.426;8.396;2024-01-10T10:16:25;36.67;;;15.68;;
52686;SDS011;38584;49.426;8.396;2024-01-10T10:18:51;46.83;;;17.15;;
52686;SDS011;38584;49.426;8.396;2024-01-10T10:21:19;37.42;;;15.93;;
52686;SDS011;38584;49.426;8.396;2024-01-10T10:23:58;32.03;;;15.63;;
52686;SDS011;38584;49.426;8.396;2024-01-10T10:26:27;38.05;;;16.67;;
52686;SDS011;38584;49.426;8.396;2024-01-10T10:29:00;36.47;;;16.45;;
52686;SDS011;38584;49.426;8.396;2024-01-10T10:31:26;36.72;;;14.68;;
52686;SDS011;38584;49.426;8.396;2024-01-10T10:33:52;33.28;;;14.30;;
52686;SDS011;38584;49.426;8.396;2024-01-10T10:36:17;32.28;;;14.73;;
52686;SDS011;38584;49.426;8.396;2024-01-10T10:38:46;32.00;;;13.27;;
52686;SDS011;38584;49.426;8.396;2024-01-10T10:41:15;33.33;;;13.88;;
52686;SDS011;38584;49.426;8.396;2024-01-10T10:43:41;32.40;;;13.75;;
52686;SDS011;38584;49.426;8.396;2024-01-10T10:46:09;29.30;;;13.35;;
52686;SDS011;38584;49.426;8.396;2024-01-10T10:48:37;31.17;;;13.65;;
52686;SDS011;38584;49.426;8.396;2024-01-10T10:51:06;34.35;;;13.68;;
52686;SDS011;38584;49.426;8.396;2024-01-10T10:53:37;32.25;;;14.13;;
52686;SDS011;38584;49.426;8.396;2024-01-10T10:56:07;32.65;;;14.00;;
52686;SDS011;38584;49.426;8.396;2024-01-10T10:58:39;34.03;;;13.80;;
52686;SDS011;38584;49.426;8.396;2024-01-10T11:01:10;30.92;;;13.77;;
52686;SDS011;38584;49.426;8.396;2024-01-10T11:03:37;32.72;;;14.00;;
52686;SDS011;38584;49.426;8.396;2024-01-10T11:06:07;31.65;;;14.65;;
52686;SDS011;38584;49.426;8.396;2024-01-10T11:14:34;32.33;;;13.77;;
52686;SDS011;38584;49.426;8.396;2024-01-10T11:22:36;31.48;;;14.00;;
52686;SDS011;38584;49.426;8.396;2024-01-10T11:25:25;30.25;;;13.82;;
52686;SDS011;38584;49.426;8.396;2024-01-10T11:27:54;33.13;;;14.93;;
52686;SDS011;38584;49.426;8.396;2024-01-10T11:30:47;32.85;;;14.35;;
52686;SDS011;38584;49.426;8.396;2024-01-10T11:33:25;32.13;;;14.35;;
52686;SDS011;38584;49.426;8.396;2024-01-10T11:38:47;31.52;;;14.55;;
52686;SDS011;38584;49.426;8.396;2024-01-10T11:49:12;33.30;;;14.80;;
52686;SDS011;38584;49.426;8.396;2024-01-10T11:51:47;34.20;;;15.07;;
52686;SDS011;38584;49.426;8.396;2024-01-10T11:54:35;34.28;;;15.73;;
52686;SDS011;38584;49.426;8.396;2024-01-10T11:57:08;33.13;;;15.98;;
52686;SDS011;38584;49.426;8.396;2024-01-10T11:59:35;36.70;;;16.15;;
52686;SDS011;38584;49.426;8.396;2024-01-10T12:02:01;32.05;;;14.75;;
52686;SDS011;38584;49.426;8.396;2024-01-10T12:04:32;33.53;;;15.75;;
52686;SDS011;38584;49.426;8.396;2024-01-10T12:07:04;29.95;;;14.02;;
52686;SDS011;38584;49.426;8.396;2024-01-10T12:09:38;30.63;;;15.52;;
52686;SDS011;38584;49.426;8.396;2024-01-10T12:12:07;35.03;;;17.35;;
52686;SDS011;38584;49.426;8.396;2024-01-10T12:14:33;32.30;;;16.35;;
52686;SDS011;38584;49.426;8.396;2024-01-10T12:16:59;32.85;;;16.52;;
52686;SDS011;38584;49.426;8.396;2024-01-10T12:19:31;32.75;;;15.73;;
52686;SDS011;38584;49.426;8.396;2024-01-10T12:22:05;28.10;;;16.05;;
52686;SDS011;38584;49.426;8.396;2024-01-10T12:24:34;28.55;;;16.55;;
52686;SDS011;38584;49.426;8.396;2024-01-10T12:26:59;31.67;;;15.52;;
52686;SDS011;38584;49.426;8.396;2024-01-10T12:29:30;32.05;;;15.80;;
52686;SDS011;38584;49.426;8.396;2024-01-10T12:31:59;30.55;;;16.48;;
52686;SDS011;38584;49.426;8.396;2024-01-10T12:34:24;35.88;;;16.42;;
52686;SDS011;38584;49.426;8.396;2024-01-10T12:36:53;30.65;;;15.90;;
52686;SDS011;38584;49.426;8.396;2024-01-10T12:39:19;35.55;;;16.27;;
52686;SDS011;38584;49.426;8.396;2024-01-10T12:41:44;31.60;;;15.52;;
52686;SDS011;38584;49.426;8.396;2024-01-10T12:44:10;30.00;;;15.88;;
52686;SDS011;38584;49.426;8.396;2024-01-10T12:46:36;30.20;;;15.35;;
52686;SDS011;38584;49.426;8.396;2024-01-10T12:49:15;37.97;;;17.25;;
52686;SDS011;38584;49.426;8.396;2024-01-10T12:51:41;31.60;;;16.92;;
52686;SDS011;38584;49.426;8.396;2024-01-10T12:54:06;31.10;;;16.02;;
52686;SDS011;38584;49.426;8.396;2024-01-10T12:56:32;33.75;;;17.20;;
52686;SDS011;38584;49.426;8.396;2024-01-10T12:58:57;28.55;;;16.30;;
52686;SDS011;38584;49.426;8.396;2024-01-10T13:01:23;34.05;;;16.05;;
52686;SDS011;38584;49.426;8.396;2024-01-10T13:03:51;31.13;;;16.80;;
52686;SDS011;38584;49.426;8.396;2024-01-10T13:06:17;30.48;;;16.35;;
52686;SDS011;38584;49.426;8.396;2024-01-10T13:08:44;31.75;;;16.23;;
52686;SDS011;38584;49.426;8.396;2024-01-10T13:11:34;30.67;;;16.67;;
52686;SDS011;38584;49.426;8.396;2024-01-10T13:13:59;34.47;;;17.42;;
52686;SDS011;38584;49.426;8.396;2024-01-10T13:16:31;33.90;;;17.23;;
52686;SDS011;38584;49.426;8.396;2024-01-10T13:18:58;32.20;;;16.17;;
52686;SDS011;38584;49.426;8.396;2024-01-10T13:21:24;36.45;;;17.73;;
52686;SDS011;38584;49.426;8.396;2024-01-10T13:23:50;34.05;;;17.15;;
52686;SDS011;38584;49.426;8.396;2024-01-10T13:26:16;33.78;;;16.67;;
52686;SDS011;38584;49.426;8.396;2024-01-10T13:28:41;35.83;;;16.55;;
52686;SDS011;38584;49.426;8.396;2024-01-10T13:31:09;31.13;;;16.15;;
52686;SDS011;38584;49.426;8.396;2024-01-10T13:33:35;34.65;;;15.95;;
52686;SDS011;38584;49.426;8.396;2024-01-10T13:36:02;31.70;;;16.23;;
52686;SDS011;38584;49.426;8.396;2024-01-10T13:38:31;32.20;;;16.20;;
52686;SDS011;38584;49.426;8.396;2024-01-10T13:40:56;29.75;;;15.65;;
52686;SDS011;38584;49.426;8.396;2024-01-10T13:43:40;31.02;;;16.75;;
52686;SDS011;38584;49.426;8.396;2024-01-10T13:46:05;35.17;;;17.70;;
52686;SDS011;38584;49.426;8.396;2024-01-10T13:48:31;30.35;;;17.35;;
52686;SDS011;38584;49.426;8.396;2024-01-10T13:50:56;36.53;;;18.20;;
52686;SDS011;38584;49.426;8.396;2024-01-10T13:53:21;33.83;;;16.27;;
52686;SDS011;38584;49.426;8.396;2024-01-10T13:55:47;32.10;;;16.45;;
52686;SDS011;38584;49.426;8.396;2024-01-10T13:58:15;32.13;;;16.60;;
52686;SDS011;38584;49.426;8.396;2024-01-10T14:00:44;30.30;;;16.00;;
52686;SDS011;38584;49.426;8.396;2024-01-10T14:03:21;34.55;;;16.02;;
52686;SDS011;38584;49.426;8.396;2024-01-10T14:05:47;30.48;;;16.42;;
52686;SDS011;38584;49.426;8.396;2024-01-10T14:08:12;29.75;;;16.25;;
52686;SDS011;38584;49.426;8.396;2024-01-10T14:10:41;30.77;;;16.73;;
52686;SDS011;38584;49.426;8.396;2024-01-10T14:13:13;31.52;;;17.42;;
52686;SDS011;38584;49.426;8.396;2024-01-10T14:15:38;35.45;;;18.13;;
52686;SDS011;38584;49.426;8.396;2024-01-10T14:18:03;33.15;;;18.10;;
52686;SDS011;38584;49.426;8.396;2024-01-10T14:20:29;40.78;;;17.98;;
52686;SDS011;38584;49.426;8.396;2024-01-10T14:22:54;35.83;;;17.38;;
52686;SDS011;38584;49.426;8.396;2024-01-10T14:25:22;34.85;;;15.57;;
52686;SDS011;38584;49.426;8.396;2024-01-10T14:27:54;35.70;;;16.90;;
52686;SDS011;38584;49.426;8.396;2024-01-10T14:30:26;33.58;;;17.33;;
52686;SDS011;38584;49.426;8.396;2024-01-10T14:32:55;39.75;;;19.00;;
52686;SDS011;38584;49.426;8.396;2024-01-10T14:35:26;36.50;;;18.00;;
52686;SDS011;38584;49.426;8.396;2024-01-10T14:37:51;42.63;;;18.70;;
52686;SDS011;38584;49.426;8.396;2024-01-10T14:40:21;35.28;;;16.70;;
52686;SDS011;38584;49.426;8.396;2024-01-10T14:42:48;35.03;;;18.77;;
52686;SDS011;38584;49.426;8.396;2024-01-10T14:45:14;37.50;;;17.75;;